sensor_id;sensor_type;location;lat;lon;timestamp;temperature;humidity
7014;DHT22;3547;50.774;12.918;2023-06-14T01:21:35;10.10;1.00
7014;DHT22;3547;50.774;12.918;2023-06-14T01:58:55;9.80;1.00
7014;DHT22;3547;50.774;12.918;2023-06-14T02:01:22;9.60;1.00
7014;DHT22;3547;50.774;12.918;2023-06-14T02:03:49;9.50;1.00
7014;DHT22;3547;50.774;12.918;2023-06-14T02:06:17;9.50;1.00
7014;DHT22;3547;50.774;12.918;2023-06-14T02:19:05;9.60;1.00
7014;DHT22;3547;50.774;12.918;2023-06-14T02:21:39;9.70;1.00
7014;DHT22;3547;50.774;12.918;2023-06-14T02:24:08;9.70;1.00
7014;DHT22;3547;50.774;12.918;2023-06-14T02:26:35;9.70;1.00
7014;DHT22;3547;50.774;12.918;2023-06-14T02:29:05;9.70;1.00
7014;DHT22;3547;50.774;12.918;2023-06-14T02:31:33;9.60;1.00
7014;DHT22;3547;50.774;12.918;2023-06-14T02:34:11;9.50;1.00
7014;DHT22;3547;50.774;12.918;2023-06-14T02:42:51;9.40;1.00
7014;DHT22;3547;50.774;12.918;2023-06-14T02:47:55;9.50;1.00
7014;DHT22;3547;50.774;12.918;2023-06-14T02:50:22;9.40;1.00
7014;DHT22;3547;50.774;12.918;2023-06-14T02:52:50;9.30;1.00
7014;DHT22;3547;50.774;12.918;2023-06-14T02:55:22;9.20;1.00
7014;DHT22;3547;50.774;12.918;2023-06-14T03:09:18;8.90;1.00
7014;DHT22;3547;50.774;12.918;2023-06-14T03:11:45;8.90;1.00
7014;DHT22;3547;50.774;12.918;2023-06-14T03:14:18;8.80;1.00
7014;DHT22;3547;50.774;12.918;2023-06-14T03:16:48;8.80;1.00
7014;DHT22;3547;50.774;12.918;2023-06-14T03:19:16;8.80;1.00
7014;DHT22;3547;50.774;12.918;2023-06-14T03:25:15;8.70;1.00
7014;DHT22;3547;50.774;12.918;2023-06-14T03:38:40;8.70;1.00
7014;DHT22;3547;50.774;12.918;2023-06-14T03:41:07;8.70;1.00
7014;DHT22;3547;50.774;12.918;2023-06-14T03:43:37;8.80;1.00
7014;DHT22;3547;50.774;12.918;2023-06-14T03:46:06;8.70;1.00
7014;DHT22;3547;50.774;12.918;2023-06-14T03:48:33;8.80;1.00
7014;DHT22;3547;50.774;12.918;2023-06-14T03:50:59;8.90;1.00
7014;DHT22;3547;50.774;12.918;2023-06-14T03:53:25;8.90;1.00
7014;DHT22;3547;50.774;12.918;2023-06-14T03:55:54;8.90;1.00
7014;DHT22;3547;50.774;12.918;2023-06-14T03:58:20;8.90;1.00
7014;DHT22;3547;50.774;12.918;2023-06-14T04:00:47;8.90;1.00
7014;DHT22;3547;50.774;12.918;2023-06-14T04:03:13;8.80;1.00
7014;DHT22;3547;50.774;12.918;2023-06-14T04:05:42;8.90;1.00
7014;DHT22;3547;50.774;12.918;2023-06-14T04:08:09;8.90;1.00
7014;DHT22;3547;50.774;12.918;2023-06-14T04:10:35;8.90;1.00
7014;DHT22;3547;50.774;12.918;2023-06-14T04:13:01;8.90;1.00
7014;DHT22;3547;50.774;12.918;2023-06-14T04:15:28;8.90;1.00
7014;DHT22;3547;50.774;12.918;2023-06-14T04:17:54;9.00;1.00
7014;DHT22;3547;50.774;12.918;2023-06-14T04:20:23;9.10;1.00
7014;DHT22;3547;50.774;12.918;2023-06-14T04:22:52;9.20;1.00
7014;DHT22;3547;50.774;12.918;2023-06-14T04:25:19;9.30;1.00
7014;DHT22;3547;50.774;12.918;2023-06-14T04:27:46;9.30;1.00
7014;DHT22;3547;50.774;12.918;2023-06-14T04:30:13;9.40;1.00
7014;DHT22;3547;50.774;12.918;2023-06-14T04:32:42;9.40;1.00
7014;DHT22;3547;50.774;12.918;2023-06-14T04:35:09;9.50;1.00
7014;DHT22;3547;50.774;12.918;2023-06-14T04:41:27;9.70;1.00
7014;DHT22;3547;50.774;12.918;2023-06-14T04:44:00;9.80;1.00
7014;DHT22;3547;50.774;12.918;2023-06-14T04:46:28;9.80;1.00
7014;DHT22;3547;50.774;12.918;2023-06-14T04:48:56;9.90;1.00
7014;DHT22;3547;50.774;12.918;2023-06-14T04:51:25;9.90;1.00
7014;DHT22;3547;50.774;12.918;2023-06-14T04:53:56;10.00;1.00
7014;DHT22;3547;50.774;12.918;2023-06-14T04:56:27;10.10;1.00
7014;DHT22;3547;50.774;12.918;2023-06-14T04:59:04;10.20;1.00
7014;DHT22;3547;50.774;12.918;2023-06-14T05:01:35;10.20;1.00
7014;DHT22;3547;50.774;12.918;2023-06-14T05:04:01;10.30;1.00
7014;DHT22;3547;50.774;12.918;2023-06-14T05:06:28;10.30;1.00
7014;DHT22;3547;50.774;12.918;2023-06-14T05:08:54;10.40;1.00
7014;DHT22;3547;50.774;12.918;2023-06-14T05:11:21;10.50;1.00
7014;DHT22;3547;50.774;12.918;2023-06-14T05:13:50;10.50;1.00
7014;DHT22;3547;50.774;12.918;2023-06-14T05:16:17;10.60;1.00
7014;DHT22;3547;50.774;12.918;2023-06-14T05:18:45;10.70;1.00
7014;DHT22;3547;50.774;12.918;2023-06-14T05:37:05;11.10;1.00
7014;DHT22;3547;50.774;12.918;2023-06-14T05:39:31;11.20;1.00
7014;DHT22;3547;50.774;12.918;2023-06-14T05:41:57;11.30;1.00
7014;DHT22;3547;50.774;12.918;2023-06-14T05:44:24;11.40;1.00
7014;DHT22;3547;50.774;12.918;2023-06-14T05:46:50;11.40;1.00
7014;DHT22;3547;50.774;12.918;2023-06-14T05:49:16;11.40;1.00
7014;DHT22;3547;50.774;12.918;2023-06-14T05:51:42;11.40;1.00
7014;DHT22;3547;50.774;12.918;2023-06-14T05:54:09;11.50;1.00
7014;DHT22;3547;50.774;12.918;2023-06-14T05:56:35;11.60;1.00
7014;DHT22;3547;50.774;12.918;2023-06-14T05:59:02;11.80;1.00
7014;DHT22;3547;50.774;12.918;2023-06-14T06:01:28;11.90;1.00
7014;DHT22;3547;50.774;12.918;2023-06-14T06:03:54;11.90;1.00
7014;DHT22;3547;50.774;12.918;2023-06-14T06:06:44;12.00;1.00
7014;DHT22;3547;50.774;12.918;2023-06-14T06:09:11;12.10;1.00
7014;DHT22;3547;50.774;12.918;2023-06-14T06:11:37;12.20;1.00
7014;DHT22;3547;50.774;12.918;2023-06-14T06:14:03;12.30;1.00
7014;DHT22;3547;50.774;12.918;2023-06-14T06:16:29;12.30;1.00
7014;DHT22;3547;50.774;12.918;2023-06-14T06:18:55;12.40;1.00
7014;DHT22;3547;50.774;12.918;2023-06-14T06:21:22;12.50;1.00
7014;DHT22;3547;50.774;12.918;2023-06-14T06:23:48;12.60;1.00
7014;DHT22;3547;50.774;12.918;2023-06-14T06:26:14;12.70;1.00
7014;DHT22;3547;50.774;12.918;2023-06-14T06:28:40;12.80;1.00
7014;DHT22;3547;50.774;12.918;2023-06-14T06:31:06;12.90;1.00
7014;DHT22;3547;50.774;12.918;2023-06-14T06:33:33;12.90;1.00
7014;DHT22;3547;50.774;12.918;2023-06-14T06:35:59;13.10;1.00
7014;DHT22;3547;50.774;12.918;2023-06-14T06:38:25;13.20;1.00
7014;DHT22;3547;50.774;12.918;2023-06-14T06:40:52;13.30;1.00
7014;DHT22;3547;50.774;12.918;2023-06-14T06:43:20;13.40;1.00
7014;DHT22;3547;50.774;12.918;2023-06-14T06:45:46;13.50;1.00
7014;DHT22;3547;50.774;12.918;2023-06-14T06:48:12;13.50;1.00
7014;DHT22;3547;50.774;12.918;2023-06-14T06:50:39;13.60;1.00
7014;DHT22;3547;50.774;12.918;2023-06-14T06:53:05;13.70;1.00
7014;DHT22;3547;50.774;12.918;2023-06-14T06:55:32;13.70;1.00
7014;DHT22;3547;50.774;12.918;2023-06-14T06:57:59;13.80;1.00
7014;DHT22;3547;50.774;12.918;2023-06-14T07:00:26;13.90;1.00
7014;DHT22;3547;50.774;12.918;2023-06-14T07:02:52;14.00;1.00
7014;DHT22;3547;50.774;12.918;2023-06-14T07:05:23;14.10;1.00
7014;DHT22;3547;50.774;12.918;2023-06-14T07:07:51;14.20;1.00
7014;DHT22;3547;50.774;12.918;2023-06-14T07:10:18;14.20;1.00
7014;DHT22;3547;50.774;12.918;2023-06-14T07:12:44;14.30;1.00
7014;DHT22;3547;50.774;12.918;2023-06-14T07:15:11;14.40;1.00
7014;DHT22;3547;50.774;12.918;2023-06-14T07:17:37;14.40;1.00
7014;DHT22;3547;50.774;12.918;2023-06-14T07:20:05;14.50;1.00
7014;DHT22;3547;50.774;12.918;2023-06-14T07:22:34;14.60;1.00
7014;DHT22;3547;50.774;12.918;2023-06-14T07:25:01;14.70;1.00
7014;DHT22;3547;50.774;12.918;2023-06-14T07:27:28;14.80;1.00
7014;DHT22;3547;50.774;12.918;2023-06-14T07:29:55;14.80;1.00
7014;DHT22;3547;50.774;12.918;2023-06-14T07:32:21;14.90;1.00
7014;DHT22;3547;50.774;12.918;2023-06-14T07:34:47;15.00;1.00
7014;DHT22;3547;50.774;12.918;2023-06-14T07:37:13;15.00;1.00
7014;DHT22;3547;50.774;12.918;2023-06-14T07:39:39;15.00;1.00
7014;DHT22;3547;50.774;12.918;2023-06-14T07:42:07;15.10;1.00
7014;DHT22;3547;50.774;12.918;2023-06-14T07:44:33;15.20;1.00
7014;DHT22;3547;50.774;12.918;2023-06-14T07:46:59;15.30;1.00
7014;DHT22;3547;50.774;12.918;2023-06-14T07:49:26;15.40;1.00
7014;DHT22;3547;50.774;12.918;2023-06-14T07:51:54;15.50;1.00
7014;DHT22;3547;50.774;12.918;2023-06-14T07:54:20;15.60;1.00
7014;DHT22;3547;50.774;12.918;2023-06-14T07:56:51;15.60;1.00
7014;DHT22;3547;50.774;12.918;2023-06-14T07:59:17;15.80;1.00
7014;DHT22;3547;50.774;12.918;2023-06-14T08:01:43;15.90;1.00
7014;DHT22;3547;50.774;12.918;2023-06-14T08:04:14;16.00;1.00
7014;DHT22;3547;50.774;12.918;2023-06-14T08:06:41;16.10;1.00
7014;DHT22;3547;50.774;12.918;2023-06-14T08:09:10;16.10;1.00
7014;DHT22;3547;50.774;12.918;2023-06-14T08:11:37;16.20;1.00
7014;DHT22;3547;50.774;12.918;2023-06-14T08:14:03;16.30;1.00
7014;DHT22;3547;50.774;12.918;2023-06-14T08:16:30;16.40;1.00
7014;DHT22;3547;50.774;12.918;2023-06-14T08:18:56;16.50;1.00
7014;DHT22;3547;50.774;12.918;2023-06-14T08:21:23;16.50;1.00
7014;DHT22;3547;50.774;12.918;2023-06-14T08:23:52;16.60;1.00
7014;DHT22;3547;50.774;12.918;2023-06-14T08:26:21;16.70;1.00
7014;DHT22;3547;50.774;12.918;2023-06-14T08:28:48;16.80;1.00
7014;DHT22;3547;50.774;12.918;2023-06-14T08:31:14;16.80;1.00
7014;DHT22;3547;50.774;12.918;2023-06-14T08:33:41;16.90;1.00
7014;DHT22;3547;50.774;12.918;2023-06-14T08:36:11;16.90;1.00
7014;DHT22;3547;50.774;12.918;2023-06-14T08:38:39;16.90;1.00
7014;DHT22;3547;50.774;12.918;2023-06-14T08:41:06;16.90;1.00
7014;DHT22;3547;50.774;12.918;2023-06-14T08:43:32;17.00;1.00
7014;DHT22;3547;50.774;12.918;2023-06-14T08:46:02;17.10;1.00
7014;DHT22;3547;50.774;12.918;2023-06-14T08:48:29;17.20;1.00
7014;DHT22;3547;50.774;12.918;2023-06-14T08:51:01;17.30;1.00
7014;DHT22;3547;50.774;12.918;2023-06-14T08:53:34;17.30;1.00
7014;DHT22;3547;50.774;12.918;2023-06-14T08:56:03;17.40;1.00
7014;DHT22;3547;50.774;12.918;2023-06-14T08:58:32;17.50;1.00
7014;DHT22;3547;50.774;12.918;2023-06-14T09:01:01;17.60;1.00
7014;DHT22;3547;50.774;12.918;2023-06-14T09:03:28;17.60;1.00
7014;DHT22;3547;50.774;12.918;2023-06-14T09:05:57;17.70;1.00
7014;DHT22;3547;50.774;12.918;2023-06-14T09:08:27;17.70;1.00
7014;DHT22;3547;50.774;12.918;2023-06-14T09:10:57;17.80;1.00
7014;DHT22;3547;50.774;12.918;2023-06-14T09:13:26;17.90;1.00
7014;DHT22;3547;50.774;12.918;2023-06-14T09:15:52;18.00;1.00
7014;DHT22;3547;50.774;12.918;2023-06-14T09:18:20;18.00;1.00
7014;DHT22;3547;50.774;12.918;2023-06-14T09:20:47;18.10;1.00
7014;DHT22;3547;50.774;12.918;2023-06-14T09:23:20;18.10;1.00
7014;DHT22;3547;50.774;12.918;2023-06-14T09:25:48;18.10;1.00
7014;DHT22;3547;50.774;12.918;2023-06-14T09:28:14;18.30;1.00
7014;DHT22;3547;50.774;12.918;2023-06-14T09:30:40;18.40;1.00
7014;DHT22;3547;50.774;12.918;2023-06-14T09:33:07;18.50;1.00
7014;DHT22;3547;50.774;12.918;2023-06-14T09:35:34;18.50;1.00
7014;DHT22;3547;50.774;12.918;2023-06-14T09:38:00;18.50;1.00
7014;DHT22;3547;50.774;12.918;2023-06-14T09:40:27;18.60;1.00
7014;DHT22;3547;50.774;12.918;2023-06-14T09:42:54;18.70;1.00
7014;DHT22;3547;50.774;12.918;2023-06-14T09:45:24;18.80;1.00
7014;DHT22;3547;50.774;12.918;2023-06-14T09:47:50;18.90;1.00
7014;DHT22;3547;50.774;12.918;2023-06-14T09:50:18;19.10;1.00
7014;DHT22;3547;50.774;12.918;2023-06-14T09:52:47;19.20;1.00
7014;DHT22;3547;50.774;12.918;2023-06-14T09:55:16;19.40;1.00
7014;DHT22;3547;50.774;12.918;2023-06-14T09:57:44;19.70;1.00
7014;DHT22;3547;50.774;12.918;2023-06-14T10:00:13;19.80;1.00
7014;DHT22;3547;50.774;12.918;2023-06-14T10:02:42;20.10;1.00
7014;DHT22;3547;50.774;12.918;2023-06-14T10:05:15;20.20;1.00
7014;DHT22;3547;50.774;12.918;2023-06-14T10:08:13;20.40;1.00
7014;DHT22;3547;50.774;12.918;2023-06-14T10:10:43;20.50;1.00
7014;DHT22;3547;50.774;12.918;2023-06-14T10:13:11;20.40;1.00
7014;DHT22;3547;50.774;12.918;2023-06-14T10:18:59;19.40;1.00
7014;DHT22;3547;50.774;12.918;2023-06-14T10:21:44;19.50;1.00
7014;DHT22;3547;50.774;12.918;2023-06-14T10:24:15;19.50;1.00
7014;DHT22;3547;50.774;12.918;2023-06-14T10:26:53;19.90;1.00
7014;DHT22;3547;50.774;12.918;2023-06-14T10:29:20;20.00;1.00
7014;DHT22;3547;50.774;12.918;2023-06-14T10:31:48;20.20;1.00
7014;DHT22;3547;50.774;12.918;2023-06-14T10:34:27;20.30;1.00
7014;DHT22;3547;50.774;12.918;2023-06-14T10:37:20;20.40;1.00
7014;DHT22;3547;50.774;12.918;2023-06-14T10:39:49;20.40;1.00
7014;DHT22;3547;50.774;12.918;2023-06-14T10:42:15;20.60;1.00
7014;DHT22;3547;50.774;12.918;2023-06-14T10:50:07;20.30;1.00
7014;DHT22;3547;50.774;12.918;2023-06-14T10:52:39;20.50;1.00
7014;DHT22;3547;50.774;12.918;2023-06-14T10:55:09;20.70;1.00
7014;DHT22;3547;50.774;12.918;2023-06-14T10:57:41;20.90;1.00
7014;DHT22;3547;50.774;12.918;2023-06-14T11:00:10;20.70;1.00
7014;DHT22;3547;50.774;12.918;2023-06-14T11:02:49;20.80;1.00
7014;DHT22;3547;50.774;12.918;2023-06-14T11:05:27;21.00;1.00
7014;DHT22;3547;50.774;12.918;2023-06-14T11:10:49;21.60;1.00
7014;DHT22;3547;50.774;12.918;2023-06-14T11:13:16;21.40;1.00
7014;DHT22;3547;50.774;12.918;2023-06-14T11:15:47;21.00;1.00
7014;DHT22;3547;50.774;12.918;2023-06-14T11:21:40;21.50;1.00
7014;DHT22;3547;50.774;12.918;2023-06-14T11:24:10;21.00;1.00
7014;DHT22;3547;50.774;12.918;2023-06-14T11:26:39;20.90;1.00
7014;DHT22;3547;50.774;12.918;2023-06-14T11:29:06;21.20;1.00
7014;DHT22;3547;50.774;12.918;2023-06-14T11:31:34;22.10;1.00
7014;DHT22;3547;50.774;12.918;2023-06-14T11:34:03;22.20;1.00
7014;DHT22;3547;50.774;12.918;2023-06-14T11:36:33;22.50;1.00
7014;DHT22;3547;50.774;12.918;2023-06-14T11:39:09;22.10;1.00
7014;DHT22;3547;50.774;12.918;2023-06-14T11:41:43;22.40;1.00
7014;DHT22;3547;50.774;12.918;2023-06-14T11:44:12;22.50;1.00
7014;DHT22;3547;50.774;12.918;2023-06-14T11:46:39;22.70;1.00
7014;DHT22;3547;50.774;12.918;2023-06-14T11:49:07;22.80;1.00
7014;DHT22;3547;50.774;12.918;2023-06-14T11:51:37;23.60;1.00
7014;DHT22;3547;50.774;12.918;2023-06-14T11:54:06;24.40;1.00
7014;DHT22;3547;50.774;12.918;2023-06-14T11:59:56;25.20;1.00
7014;DHT22;3547;50.774;12.918;2023-06-14T12:02:28;24.90;1.00
7014;DHT22;3547;50.774;12.918;2023-06-14T12:05:07;24.70;1.00
7014;DHT22;3547;50.774;12.918;2023-06-14T12:07:39;25.30;1.00
7014;DHT22;3547;50.774;12.918;2023-06-14T12:10:07;25.80;1.00
7014;DHT22;3547;50.774;12.918;2023-06-14T12:12:39;25.90;1.00
7014;DHT22;3547;50.774;12.918;2023-06-14T12:15:09;25.40;1.00
7014;DHT22;3547;50.774;12.918;2023-06-14T12:17:39;24.90;1.00
7014;DHT22;3547;50.774;12.918;2023-06-14T12:20:22;24.40;1.00
7014;DHT22;3547;50.774;12.918;2023-06-14T12:22:53;24.90;1.00
7014;DHT22;3547;50.774;12.918;2023-06-14T12:25:30;25.80;1.00
7014;DHT22;3547;50.774;12.918;2023-06-14T12:28:09;26.50;1.00
7014;DHT22;3547;50.774;12.918;2023-06-14T12:30:36;27.00;1.00
7014;DHT22;3547;50.774;12.918;2023-06-14T12:33:04;27.30;1.00
7014;DHT22;3547;50.774;12.918;2023-06-14T12:35:33;27.70;1.00
7014;DHT22;3547;50.774;12.918;2023-06-14T14:19:16;25.40;99.90
7014;DHT22;3547;50.774;12.918;2023-06-14T14:21:45;25.80;1.00
7014;DHT22;3547;50.774;12.918;2023-06-14T14:24:13;25.50;1.00
7014;DHT22;3547;50.774;12.918;2023-06-14T14:26:42;26.80;1.00
7014;DHT22;3547;50.774;12.918;2023-06-14T14:29:11;27.90;1.00
7014;DHT22;3547;50.774;12.918;2023-06-14T14:31:37;28.70;1.00
7014;DHT22;3547;50.774;12.918;2023-06-14T14:34:05;29.40;1.00
7014;DHT22;3547;50.774;12.918;2023-06-14T14:36:31;30.40;1.00
7014;DHT22;3547;50.774;12.918;2023-06-14T14:39:00;31.10;1.00
7014;DHT22;3547;50.774;12.918;2023-06-14T14:41:27;31.70;99.90
7014;DHT22;3547;50.774;12.918;2023-06-14T14:43:54;32.20;99.90
7014;DHT22;3547;50.774;12.918;2023-06-14T14:46:20;32.10;99.90
7014;DHT22;3547;50.774;12.918;2023-06-14T14:48:48;32.10;99.90
7014;DHT22;3547;50.774;12.918;2023-06-14T15:12:05;30.20;99.90
7014;DHT22;3547;50.774;12.918;2023-06-14T15:57:39;33.40;99.90
7014;DHT22;3547;50.774;12.918;2023-06-14T16:08:13;36.70;99.90
7014;DHT22;3547;50.774;12.918;2023-06-14T16:10:59;37.30;99.90
7014;DHT22;3547;50.774;12.918;2023-06-14T16:17:19;33.60;99.90
7014;DHT22;3547;50.774;12.918;2023-06-14T16:19:49;33.30;99.90
7014;DHT22;3547;50.774;12.918;2023-06-14T16:22:17;33.80;99.90
7014;DHT22;3547;50.774;12.918;2023-06-14T17:21:36;35.90;99.90
7014;DHT22;3547;50.774;12.918;2023-06-14T17:30:37;30.70;99.90
7014;DHT22;3547;50.774;12.918;2023-06-14T17:33:12;29.20;99.90
7014;DHT22;3547;50.774;12.918;2023-06-14T18:43:00;19.60;99.90
7014;DHT22;3547;50.774;12.918;2023-06-14T21:12:48;13.10;1.00
7014;DHT22;3547;50.774;12.918;2023-06-14T21:15:15;13.10;1.00
7014;DHT22;3547;50.774;12.918;2023-06-14T21:17:44;13.00;1.00
7014;DHT22;3547;50.774;12.918;2023-06-14T21:20:15;13.00;1.00
7014;DHT22;3547;50.774;12.918;2023-06-14T21:22:46;12.90;1.00
7014;DHT22;3547;50.774;12.918;2023-06-14T21:25:17;12.70;1.00
7014;DHT22;3547;50.774;12.918;2023-06-14T21:27:43;12.70;1.00
7014;DHT22;3547;50.774;12.918;2023-06-14T21:30:14;12.70;1.00
7014;DHT22;3547;50.774;12.918;2023-06-14T21:32:42;12.60;1.00
7014;DHT22;3547;50.774;12.918;2023-06-14T21:35:14;12.50;1.00
7014;DHT22;3547;50.774;12.918;2023-06-14T21:37:44;12.50;1.00
7014;DHT22;3547;50.774;12.918;2023-06-14T21:40:13;12.30;1.00
7014;DHT22;3547;50.774;12.918;2023-06-14T21:42:40;12.50;1.00
7014;DHT22;3547;50.774;12.918;2023-06-14T21:45:18;12.40;1.00
7014;DHT22;3547;50.774;12.918;2023-06-14T21:47:50;12.30;1.00
7014;DHT22;3547;50.774;12.918;2023-06-14T21:50:20;12.30;1.00
7014;DHT22;3547;50.774;12.918;2023-06-14T21:52:50;12.20;1.00
7014;DHT22;3547;50.774;12.918;2023-06-14T21:55:22;12.10;1.00
7014;DHT22;3547;50.774;12.918;2023-06-14T22:01:12;12.10;1.00
7014;DHT22;3547;50.774;12.918;2023-06-14T22:03:39;12.00;1.00
7014;DHT22;3547;50.774;12.918;2023-06-14T22:06:05;11.90;1.00
7014;DHT22;3547;50.774;12.918;2023-06-14T22:08:33;11.90;1.00
7014;DHT22;3547;50.774;12.918;2023-06-14T22:11:00;11.80;1.00
7014;DHT22;3547;50.774;12.918;2023-06-14T22:13:37;11.70;1.00
7014;DHT22;3547;50.774;12.918;2023-06-14T22:16:09;11.70;1.00
7014;DHT22;3547;50.774;12.918;2023-06-14T22:18:39;11.70;1.00
7014;DHT22;3547;50.774;12.918;2023-06-14T22:21:07;11.60;1.00
7014;DHT22;3547;50.774;12.918;2023-06-14T22:23:35;11.70;1.00
7014;DHT22;3547;50.774;12.918;2023-06-14T22:26:05;11.70;1.00
7014;DHT22;3547;50.774;12.918;2023-06-14T22:28:34;11.70;1.00
7014;DHT22;3547;50.774;12.918;2023-06-14T22:31:11;11.70;1.00
7014;DHT22;3547;50.774;12.918;2023-06-14T22:33:40;11.60;1.00
7014;DHT22;3547;50.774;12.918;2023-06-14T22:41:23;11.40;1.00
7014;DHT22;3547;50.774;12.918;2023-06-14T22:43:59;11.40;1.00
7014;DHT22;3547;50.774;12.918;2023-06-14T22:46:31;11.50;1.00
7014;DHT22;3547;50.774;12.918;2023-06-14T22:49:01;11.40;1.00
7014;DHT22;3547;50.774;12.918;2023-06-14T22:51:27;11.30;1.00
7014;DHT22;3547;50.774;12.918;2023-06-14T22:53:56;11.30;1.00
7014;DHT22;3547;50.774;12.918;2023-06-14T22:56:23;11.20;1.00
7014;DHT22;3547;50.774;12.918;2023-06-14T22:58:50;11.10;1.00
7014;DHT22;3547;50.774;12.918;2023-06-14T23:01:20;11.10;1.00
7014;DHT22;3547;50.774;12.918;2023-06-14T23:03:53;11.10;1.00
7014;DHT22;3547;50.774;12.918;2023-06-14T23:06:34;11.00;1.00
7014;DHT22;3547;50.774;12.918;2023-06-14T23:09:04;11.00;1.00
7014;DHT22;3547;50.774;12.918;2023-06-14T23:11:33;11.10;1.00
7014;DHT22;3547;50.774;12.918;2023-06-14T23:14:03;11.10;1.00
7014;DHT22;3547;50.774;12.918;2023-06-14T23:16:31;11.10;1.00
7014;DHT22;3547;50.774;12.918;2023-06-14T23:19:02;11.10;1.00
7014;DHT22;3547;50.774;12.918;2023-06-14T23:21:29;11.00;1.00
7014;DHT22;3547;50.774;12.918;2023-06-14T23:23:56;10.90;1.00
7014;DHT22;3547;50.774;12.918;2023-06-14T23:26:28;10.90;1.00
7014;DHT22;3547;50.774;12.918;2023-06-14T23:28:56;10.70;1.00
7014;DHT22;3547;50.774;12.918;2023-06-14T23:31:23;10.70;1.00
7014;DHT22;3547;50.774;12.918;2023-06-14T23:33:49;10.70;1.00
7014;DHT22;3547;50.774;12.918;2023-06-14T23:36:18;10.60;1.00
7014;DHT22;3547;50.774;12.918;2023-06-14T23:38:47;10.50;1.00
7014;DHT22;3547;50.774;12.918;2023-06-14T23:41:14;10.50;1.00
7014;DHT22;3547;50.774;12.918;2023-06-14T23:43:45;10.60;1.00
7014;DHT22;3547;50.774;12.918;2023-06-14T23:46:15;10.60;1.00
7014;DHT22;3547;50.774;12.918;2023-06-14T23:48:45;10.60;1.00
7014;DHT22;3547;50.774;12.918;2023-06-14T23:51:13;10.60;1.00
7014;DHT22;3547;50.774;12.918;2023-06-14T23:53:42;10.60;1.00
7014;DHT22;3547;50.774;12.918;2023-06-14T23:56:14;10.50;1.00
7014;DHT22;3547;50.774;12.918;2023-06-14T23:58:52;10.50;1.00
